createdAt,value
2022-11-04T00:01:34.942Z,99733.47
2022-11-04T00:04:01.853Z,99738.63
2022-11-04T00:06:28.906Z,99740.34
2022-11-04T00:08:58.066Z,99732.56
2022-11-04T00:11:45.879Z,99736.84
2022-11-04T00:14:14.228Z,99735.25
2022-11-04T00:17:00.166Z,99736.09
2022-11-04T00:19:27.477Z,99739.47
2022-11-04T00:22:13.927Z,99735.06
2022-11-04T00:24:43.811Z,99738.50
2022-11-04T00:27:31.781Z,99728.00
2022-11-04T00:30:01.288Z,99732.31
2022-11-04T00:32:46.696Z,99737.53
2022-11-04T00:35:14.247Z,99729.56
2022-11-04T00:37:43.215Z,99723.38
2022-11-04T00:40:12.785Z,99723.31
2022-11-04T00:42:40.758Z,99723.50
2022-11-04T00:45:08.624Z,99720.78
2022-11-04T00:47:35.639Z,99725.19
2022-11-04T00:50:02.738Z,99719.78
2022-11-04T00:52:29.688Z,99720.75
2022-11-04T00:54:56.724Z,99721.97
2022-11-04T00:57:23.604Z,99715.50
2022-11-04T00:59:50.636Z,99716.41
2022-11-04T01:02:17.731Z,99718.81
2022-11-04T01:04:44.726Z,99717.97
2022-11-04T01:07:11.613Z,99715.44
2022-11-04T01:09:38.769Z,99715.44
2022-11-04T01:12:08.579Z,99709.25
2022-11-04T01:14:35.752Z,99719.03
2022-11-04T01:17:02.995Z,99718.88
2022-11-04T01:19:30.051Z,99704.81
2022-11-04T01:21:57.155Z,99716.34
2022-11-04T01:24:24.314Z,99711.97
2022-11-04T01:26:51.244Z,99703.91
2022-11-04T01:29:18.170Z,99700.47
2022-11-04T01:31:45.154Z,99696.28
2022-11-04T01:34:12.069Z,99692.78
2022-11-04T01:36:39.248Z,99700.59
2022-11-04T01:39:06.266Z,99698.19
2022-11-04T01:41:34.568Z,99707.81
2022-11-04T01:44:04.789Z,99712.19
2022-11-04T01:46:38.292Z,99698.25
2022-11-04T01:49:28.855Z,99712.31
2022-11-04T01:52:11.049Z,99700.03
2022-11-04T01:54:40.856Z,99693.03
2022-11-04T01:57:15.060Z,99685.84
2022-11-04T01:59:43.027Z,99671.78
2022-11-04T02:02:10.526Z,99674.41
2022-11-04T02:04:39.709Z,99677.25
2022-11-04T02:07:09.834Z,99684.25
2022-11-04T02:09:38.722Z,99681.69
2022-11-04T02:12:24.995Z,99686.81
2022-11-04T02:14:54.217Z,99686.81
2022-11-04T02:17:47.721Z,99692.97
2022-11-04T02:20:31.022Z,99695.56
2022-11-04T02:23:16.505Z,99693.88
2022-11-04T02:26:01.972Z,99695.75
2022-11-04T02:29:27.642Z,99691.38
2022-11-04T02:32:10.686Z,99701.13
2022-11-04T02:34:51.295Z,99696.72
2022-11-04T02:37:38.709Z,99696.94
2022-11-04T02:40:17.052Z,99696.09
2022-11-04T02:42:54.004Z,99689.28
2022-11-04T02:45:48.501Z,99686.44
2022-11-04T02:48:36.748Z,99694.31
2022-11-04T02:51:22.736Z,99691.72
2022-11-04T02:54:12.786Z,99688.16
2022-11-04T02:56:46.189Z,99684.63
2022-11-04T02:59:39.066Z,99688.06
2022-11-04T03:02:11.448Z,99684.50
2022-11-04T03:04:43.666Z,99681.91
2022-11-04T03:07:15.244Z,99680.97
2022-11-04T03:09:49.930Z,99679.22
2022-11-04T03:12:24.150Z,99685.34
2022-11-04T03:15:05.571Z,99685.59
2022-11-04T03:17:47.852Z,99681.31
2022-11-04T03:20:23.578Z,99675.19
2022-11-04T03:22:50.925Z,99677.78
2022-11-04T03:25:18.034Z,99677.78
2022-11-04T03:28:04.444Z,99677.91
2022-11-04T03:30:42.935Z,99670.84
2022-11-04T03:33:34.326Z,99676.25
2022-11-04T03:36:03.231Z,99665.75
2022-11-04T03:38:30.841Z,99663.91
2022-11-04T03:41:01.986Z,99666.47
2022-11-04T03:43:30.872Z,99673.56
2022-11-04T03:45:58.316Z,99671.03
2022-11-04T03:48:25.681Z,99677.16
2022-11-04T03:50:53.207Z,99679.88
2022-11-04T03:56:21.571Z,99665.75
2022-11-04T03:59:04.687Z,99671.09
2022-11-04T04:01:50.068Z,99670.41
2022-11-04T04:04:20.094Z,99665.75
2022-11-04T04:06:52.106Z,99664.88
2022-11-04T04:09:27.170Z,99665.63
2022-11-04T04:12:19.964Z,99654.13
2022-11-04T04:14:51.955Z,99653.34
2022-11-04T04:17:43.291Z,99646.44
2022-11-04T04:20:18.667Z,99650.75
2022-11-04T04:23:49.650Z,99655.25
2022-11-04T04:26:38.943Z,99671.03
2022-11-04T04:29:09.128Z,99661.31
2022-11-04T04:31:50.530Z,99660.47
2022-11-04T04:34:21.526Z,99671.88
2022-11-04T04:37:00.609Z,99670.22
2022-11-04T04:40:11.369Z,99672.06
2022-11-04T04:42:57.890Z,99687.00
2022-11-04T04:45:33.997Z,99695.84
2022-11-04T04:48:01.617Z,99690.56
2022-11-04T04:50:37.762Z,99703.63
2022-11-04T04:53:05.205Z,99706.28
2022-11-04T04:55:36.189Z,99707.13
2022-11-04T04:58:06.089Z,99701.78
2022-11-04T05:00:34.143Z,99702.72
2022-11-04T05:03:01.159Z,99703.47
2022-11-04T05:05:28.519Z,99698.97
2022-11-04T05:07:55.741Z,99705.13
2022-11-04T05:10:22.825Z,99701.50
2022-11-04T05:13:08.391Z,99712.78
2022-11-04T05:15:35.604Z,99704.81
2022-11-04T05:18:03.762Z,99705.63
2022-11-04T05:20:34.301Z,99710.81
2022-11-04T05:23:02.597Z,99707.16
2022-11-04T05:25:30.073Z,99708.81
2022-11-04T05:28:01.126Z,99706.13
2022-11-04T05:30:29.139Z,99717.44
2022-11-04T05:32:59.907Z,99714.72
2022-11-04T05:35:30.966Z,99713.81
2022-11-04T05:37:58.344Z,99716.41
2022-11-04T05:40:26.007Z,99710.09
2022-11-04T05:42:53.393Z,99708.25
2022-11-04T05:45:20.509Z,99705.44
2022-11-04T05:47:47.781Z,99711.47
2022-11-04T05:50:15.155Z,99708.78
2022-11-04T05:52:42.828Z,99708.69
2022-11-04T05:55:10.283Z,99710.53
2022-11-04T05:57:38.426Z,99714.91
2022-11-04T06:00:07.460Z,99718.47
2022-11-04T06:02:34.797Z,99716.88
2022-11-04T06:05:02.065Z,99715.94
2022-11-04T06:07:29.320Z,99724.88
2022-11-04T06:09:56.558Z,99716.06
2022-11-04T06:12:23.792Z,99723.81
2022-11-04T06:14:51.361Z,99724.94
2022-11-04T06:17:21.232Z,99729.22
2022-11-04T06:19:49.546Z,99715.09
2022-11-04T06:22:18.610Z,99711.53
2022-11-04T10:25:48.366Z,99694.28
2022-11-04T10:28:19.636Z,99695.19
2022-11-04T10:30:50.631Z,99697.84
2022-11-04T10:33:20.628Z,99685.50
2022-11-04T10:35:53.119Z,99671.31
2022-11-04T10:38:22.981Z,99677.59
2022-11-04T10:40:53.957Z,99686.78
2022-11-04T10:43:32.232Z,99678.31
2022-11-04T10:46:06.278Z,99681.44
2022-11-04T10:49:08.660Z,99679.44
2022-11-04T10:51:36.075Z,99676.69
2022-11-04T10:54:08.229Z,99665.94
2022-11-04T10:56:43.548Z,99666.81
2022-11-04T10:59:20.627Z,99666.88
2022-11-04T11:01:59.947Z,99669.44
2022-11-04T11:04:36.009Z,99658.06
2022-11-04T11:07:09.342Z,99659.94
2022-11-04T11:09:49.747Z,99654.31
2022-11-04T11:12:50.634Z,99655.19
2022-11-04T11:15:27.645Z,99651.28
2022-11-04T11:18:11.306Z,99645.38
2022-11-04T11:20:41.671Z,99648.25
2022-11-04T11:23:38.562Z,99645.38
2022-11-04T11:26:13.736Z,99644.91
2022-11-04T11:28:41.895Z,99647.88
2022-11-04T11:31:16.665Z,99645.88
2022-11-04T11:33:52.458Z,99654.44
2022-11-04T11:36:22.142Z,99650.94
2022-11-04T11:38:57.907Z,99645.94
2022-11-04T11:41:31.785Z,99646.22
2022-11-04T11:44:17.894Z,99642.34
2022-11-04T11:46:55.053Z,99639.03
2022-11-04T11:49:29.297Z,99639.91
2022-11-04T11:52:17.003Z,99630.31
2022-11-04T11:54:47.893Z,99634.78
2022-11-04T11:57:46.574Z,99637.66
2022-11-04T12:00:40.333Z,99636.06
2022-11-04T12:03:31.210Z,99628.44
2022-11-04T12:09:34.064Z,99631.84
2022-11-04T12:12:32.660Z,99629.44
2022-11-04T12:15:07.972Z,99624.44
2022-11-04T12:17:38.292Z,99628.25
2022-11-04T12:20:31.159Z,99623.72
2022-11-04T12:23:22.938Z,99620.97
2022-11-04T12:26:20.708Z,99625.34
2022-11-04T12:29:09.384Z,99636.38
2022-11-04T12:32:01.542Z,99629.22
2022-11-04T12:35:00.394Z,99643.34
2022-11-04T12:37:55.738Z,99641.13
2022-11-04T12:40:28.864Z,99638.53
2022-11-04T12:43:27.290Z,99651.00
2022-11-04T12:45:56.935Z,99642.50
2022-11-04T12:48:36.313Z,99637.97
2022-11-04T12:51:13.407Z,99641.69
2022-11-04T12:53:56.309Z,99641.88
2022-11-04T12:56:38.323Z,99648.97
2022-11-04T12:59:27.238Z,99648.25
2022-11-04T13:02:12.349Z,99646.22
2022-11-04T13:04:47.808Z,99640.38
2022-11-04T13:07:22.811Z,99639.59
2022-11-04T13:09:55.116Z,99636.16
2022-11-04T13:12:32.116Z,99633.50
2022-11-04T13:15:17.256Z,99641.50
2022-11-04T13:17:46.764Z,99642.66
2022-11-04T13:20:27.753Z,99640.81
2022-11-04T13:23:07.688Z,99633.06
2022-11-04T13:25:37.434Z,99643.66
2022-11-04T13:28:04.850Z,99644.59
2022-11-04T13:30:56.169Z,99638.44
2022-11-04T13:33:56.103Z,99644.88
2022-11-04T13:36:52.703Z,99647.72
2022-11-04T13:39:29.591Z,99647.72
2022-11-04T13:42:15.761Z,99644.75
2022-11-04T13:44:50.688Z,99644.94
2022-11-04T13:47:25.694Z,99647.97
2022-11-04T13:49:58.358Z,99651.44
2022-11-04T13:52:30.579Z,99653.25
2022-11-04T13:55:05.392Z,99651.69
2022-11-04T13:57:55.820Z,99650.81
2022-11-04T14:00:28.950Z,99650.94
2022-11-04T18:12:36.940Z,99693.84
2022-11-04T18:15:05.791Z,99681.22
2022-11-04T18:17:36.294Z,99695.63
2022-11-04T18:20:07.118Z,99685.44
2022-11-04T18:22:36.429Z,99684.84
2022-11-04T18:25:03.704Z,99683.44
2022-11-04T18:27:30.915Z,99683.75
2022-11-04T18:29:58.077Z,99679.59
2022-11-04T18:32:25.327Z,99678.22
2022-11-04T18:34:52.828Z,99687.34
2022-11-04T18:37:20.623Z,99673.97
2022-11-04T18:39:48.108Z,99679.97
2022-11-04T18:42:15.141Z,99688.72
2022-11-04T18:44:42.229Z,99682.19
2022-11-04T18:47:09.632Z,99679.25
2022-11-04T18:49:36.629Z,99679.84
2022-11-04T18:52:03.699Z,99677.88
2022-11-04T18:54:30.759Z,99688.09
2022-11-04T18:56:57.627Z,99687.97
2022-11-04T18:59:24.734Z,99680.75
2022-11-04T19:01:53.311Z,99693.00
2022-11-04T19:04:20.645Z,99685.91
2022-11-04T19:06:47.881Z,99692.88
2022-11-04T19:12:23.576Z,99696.41
2022-11-04T19:14:50.790Z,99695.38
2022-11-04T19:17:17.999Z,99691.88
2022-11-04T19:19:45.037Z,99696.16
2022-11-04T19:22:12.542Z,99701.34
2022-11-04T19:24:40.316Z,99710.25
2022-11-04T19:27:07.393Z,99710.19
2022-11-04T19:29:34.399Z,99710.97
2022-11-04T19:32:01.493Z,99709.53
2022-11-04T19:34:28.544Z,99715.50
2022-11-04T19:36:55.931Z,99711.97
2022-11-04T19:39:23.053Z,99711.88
2022-11-04T19:42:08.949Z,99716.25
2022-11-04T19:44:36.264Z,99722.38
2022-11-04T19:47:03.458Z,99719.66
2022-11-04T19:49:31.731Z,99716.06
2022-11-04T19:51:59.439Z,99716.06
2022-11-04T19:54:28.474Z,99715.16
2022-11-04T19:56:56.782Z,99716.81
2022-11-04T19:59:24.213Z,99716.00
2022-11-04T20:01:51.702Z,99717.69
2022-11-04T20:04:19.349Z,99714.13
2022-11-04T20:06:46.572Z,99713.22
2022-11-04T20:09:14.626Z,99710.53
2022-11-04T20:12:01.119Z,99708.84
2022-11-04T20:14:29.512Z,99712.47
2022-11-04T20:16:56.922Z,99710.63
2022-11-04T20:19:24.095Z,99715.09
2022-11-04T20:21:51.789Z,99716.00
2022-11-04T20:24:19.183Z,99716.00
2022-11-04T20:26:49.720Z,99727.41
2022-11-04T20:29:17.530Z,99716.84
2022-11-04T20:31:45.294Z,99715.16
2022-11-04T20:34:14.394Z,99718.59
2022-11-04T20:36:42.007Z,99730.00
2022-11-04T20:39:19.917Z,99722.97
2022-11-04T20:41:47.632Z,99735.25
2022-11-04T20:44:16.147Z,99730.03
2022-11-04T20:46:44.602Z,99731.81
2022-11-04T20:49:12.314Z,99727.41
2022-11-04T20:51:50.179Z,99727.41
2022-11-04T20:54:23.569Z,99727.34
2022-11-04T20:56:51.098Z,99722.97
2022-11-04T20:59:18.701Z,99720.31
2022-11-04T21:01:47.709Z,99722.88
2022-11-04T21:04:19.340Z,99717.75
2022-11-04T21:06:49.092Z,99723.81
2022-11-04T21:09:18.203Z,99722.03
2022-11-04T21:11:46.021Z,99722.88
2022-11-04T21:14:15.404Z,99714.97
2022-11-04T21:16:42.892Z,99721.13
2022-11-04T21:19:12.081Z,99721.97
2022-11-04T21:21:42.474Z,99717.59
2022-11-04T21:24:13.307Z,99721.13
2022-11-04T21:26:41.179Z,99727.78
2022-11-04T21:29:12.513Z,99723.16
2022-11-04T21:31:39.712Z,99723.47
2022-11-04T21:34:07.935Z,99714.53
2022-11-04T21:36:35.135Z,99718.94
2022-11-04T21:39:02.517Z,99712.88
2022-11-04T21:41:33.978Z,99712.88
2022-11-04T21:44:03.606Z,99715.63
2022-11-04T21:46:32.584Z,99715.56
2022-11-04T21:49:01.087Z,99711.28
2022-11-04T21:51:33.064Z,99704.22
2022-11-04T21:54:01.295Z,99708.59
2022-11-04T21:56:33.391Z,99715.66
2022-11-04T21:59:01.738Z,99711.28
2022-11-04T22:01:30.866Z,99716.50
2022-11-04T22:04:00.880Z,99719.16
2022-11-04T22:06:34.733Z,99710.38
2022-11-04T22:09:04.401Z,99727.00
2022-11-04T22:11:33.241Z,99715.63
2022-11-04T22:14:02.232Z,99727.06
2022-11-04T22:16:31.837Z,99728.78
2022-11-04T22:19:01.490Z,99727.00
2022-11-04T22:21:31.546Z,99734.88
2022-11-04T22:23:59.810Z,99725.22
2022-11-04T22:26:29.176Z,99726.06
2022-11-04T22:28:58.337Z,99722.63
2022-11-04T22:31:37.464Z,99732.38
2022-11-04T22:34:06.028Z,99736.00
2022-11-04T22:36:34.341Z,99737.72
2022-11-04T22:39:01.393Z,99740.69
2022-11-04T22:41:31.627Z,99737.00
2022-11-04T22:43:59.709Z,99735.25
2022-11-04T22:46:32.285Z,99742.44
2022-11-04T22:49:02.709Z,99736.34
2022-11-04T22:51:31.537Z,99737.31
2022-11-04T22:54:04.608Z,99743.47
2022-11-04T22:56:35.174Z,99742.53
2022-11-04T22:59:02.411Z,99745.16
2022-11-04T23:01:31.813Z,99742.56
2022-11-04T23:03:59.282Z,99754.00
2022-11-04T23:06:26.384Z,99748.72
2022-11-04T23:08:59.614Z,99749.59
2022-11-04T23:11:47.060Z,99751.38
2022-11-04T23:14:35.453Z,99747.00
2022-11-04T23:17:22.454Z,99757.53
2022-11-04T23:19:50.680Z,99755.81
2022-11-04T23:22:36.315Z,99762.00
2022-11-04T23:25:06.544Z,99766.47
2022-11-04T23:27:59.055Z,99759.56
2022-11-04T23:30:29.296Z,99768.38
2022-11-04T23:33:02.216Z,99759.63
2022-11-04T23:35:52.511Z,99757.13
2022-11-04T23:38:19.940Z,99753.69
2022-11-04T23:41:07.443Z,99766.16
2022-11-04T23:43:35.564Z,99767.91
2022-11-04T23:46:21.380Z,99762.78
2022-11-04T23:49:07.448Z,99761.03
2022-11-04T23:51:52.983Z,99763.66
2022-11-04T23:54:38.693Z,99761.03
2022-11-04T23:57:36.410Z,99765.41
